Time;durP1;ratioP1;P1;durP2;ratioP2;P2;SDS_P1;SDS_P2;PMS_P1;PMS_P2;Temp;Humidity;BMP_temperature;BMP_pressure;BME280_temperature;BME280_humidity;BME280_pressure;Samples;Min_cycle;Max_cycle;Signal;HPM_P1;HPM_P2
2022/07/01 00:00:18;;;;;;;16.13;11.98;;;;;;;14.33;80.55;101396.94;5061370;28;20032;-80
2022/07/01 00:02:44;;;;;;;15.35;12.05;;;;;;;14.30;80.76;101405.75;5064571;28;20081;-80
2022/07/01 00:05:09;;;;;;;15.80;11.73;;;;;;;14.27;80.46;101408.44;5067892;28;20024;-80
2022/07/01 00:07:35;;;;;;;16.02;11.77;;;;;;;14.24;80.83;101398.06;5064778;28;20478;-79
2022/07/01 00:10:00;;;;;;;16.00;11.75;;;;;;;14.21;80.96;101399.03;5060648;28;20091;-78
2022/07/01 00:12:25;;;;;;;14.30;11.43;;;;;;;14.20;81.32;101406.94;5062196;28;20055;-79
2022/07/01 00:14:51;;;;;;;15.05;10.80;;;;;;;14.17;80.96;101402.66;5062852;28;20598;-79
2022/07/01 00:17:16;;;;;;;14.07;10.98;;;;;;;14.15;81.01;101398.38;5065947;28;20056;-79
2022/07/01 00:19:41;;;;;;;14.05;10.18;;;;;;;14.13;80.76;101400.19;5063115;28;20045;-79
2022/07/01 00:22:07;;;;;;;13.63;10.73;;;;;;;14.09;80.62;101409.91;5059465;28;20024;-79
2022/07/01 00:24:32;;;;;;;12.90;9.32;;;;;;;14.07;80.64;101406.47;5062855;28;20027;-79
2022/07/01 00:26:58;;;;;;;11.30;9.25;;;;;;;14.06;80.80;101394.31;5063815;28;20025;-79
2022/07/01 00:29:23;;;;;;;11.23;8.88;;;;;;;14.03;80.83;101379.53;5055273;28;20024;-79
2022/07/01 00:31:48;;;;;;;10.95;8.18;;;;;;;14.03;80.61;101394.41;5064697;28;20024;-79
2022/07/01 00:34:13;;;;;;;11.45;8.88;;;;;;;14.00;80.58;101411.06;5065539;28;20061;-79
2022/07/01 00:36:39;;;;;;;10.05;8.07;;;;;;;13.98;80.84;101401.53;5062064;28;20468;-79
2022/07/01 00:39:04;;;;;;;10.32;7.47;;;;;;;13.94;80.65;101388.53;5060455;28;20028;-79
2022/07/01 00:41:29;;;;;;;10.65;7.90;;;;;;;13.93;80.65;101399.06;5063666;28;20364;-79
2022/07/01 00:43:55;;;;;;;10.07;7.65;;;;;;;13.90;80.98;101393.91;5061230;28;20020;-79
2022/07/01 00:46:21;;;;;;;10.75;7.72;;;;;;;13.88;81.06;101395.72;5058070;28;20047;-79
2022/07/01 00:48:46;;;;;;;9.65;7.47;;;;;;;13.85;80.89;101386.22;5059005;28;20043;-79
2022/07/01 00:51:12;;;;;;;9.93;7.68;;;;;;;13.85;80.86;101393.19;5062237;28;20028;-80
2022/07/01 00:53:37;;;;;;;11.60;8.18;;;;;;;13.85;81.11;101393.19;5064293;28;20032;-79
2022/07/01 00:56:02;;;;;;;10.23;7.63;;;;;;;13.85;81.05;101391.44;5063329;28;20030;-80
2022/07/01 00:58:29;;;;;;;11.00;7.88;;;;;;;13.86;81.41;101395.78;5058329;28;20036;-79
2022/07/01 01:00:56;;;;;;;11.00;7.78;;;;;;;13.89;81.20;101402.66;5062788;28;20147;-79
2022/07/01 01:03:22;;;;;;;11.07;8.27;;;;;;;13.89;81.36;101398.31;5059038;28;20013;-78
2022/07/01 01:05:48;;;;;;;11.60;7.85;;;;;;;13.90;81.36;101405.25;5056342;28;20044;-78
2022/07/01 01:08:14;;;;;;;10.15;7.60;;;;;;;13.91;81.10;101412.19;5061378;28;20056;-78
2022/07/01 01:10:40;;;;;;;11.30;7.97;;;;;;;13.91;81.15;101416.56;5059635;28;20056;-78
2022/07/01 01:13:05;;;;;;;11.82;8.40;;;;;;;13.91;80.90;101425.28;5065589;28;20024;-79
2022/07/01 01:15:31;;;;;;;12.57;8.90;;;;;;;13.90;80.74;101427.91;5062024;28;20220;-79
2022/07/01 01:17:56;;;;;;;11.73;8.85;;;;;;;13.89;80.79;101434.03;5058211;28;20070;-79
2022/07/01 01:20:22;;;;;;;14.77;9.30;;;;;;;13.87;81.12;101436.72;5059629;28;20076;-79
2022/07/01 01:22:48;;;;;;;12.77;9.30;;;;;;;13.87;81.15;101443.69;5061359;28;20028;-79
2022/07/01 01:25:14;;;;;;;14.27;9.23;;;;;;;13.88;80.83;101453.25;5056850;28;20524;-78
2022/07/01 01:27:39;;;;;;;15.45;9.02;;;;;;;13.87;81.04;101446.31;5055226;28;20381;-78
2022/07/01 01:30:07;;;;;;;14.23;9.45;;;;;;;13.87;81.08;101451.53;5059996;28;20036;-79
2022/07/01 01:32:32;;;;;;;16.88;10.00;;;;;;;13.84;81.29;101455.13;5059708;28;20479;-79
2022/07/01 01:34:58;;;;;;;14.45;9.48;;;;;;;13.85;80.95;101448.09;5054111;28;20043;-79
2022/07/01 01:37:23;;;;;;;12.55;9.07;;;;;;;13.86;81.67;101458.53;5060194;28;20044;-79
2022/07/01 01:39:48;;;;;;;13.98;9.00;;;;;;;13.88;81.60;101454.13;5065843;28;20083;-79
2022/07/01 01:42:14;;;;;;;13.25;9.20;;;;;;;13.89;81.49;101441.88;5059881;28;20029;-79
2022/07/01 01:44:39;;;;;;;11.77;8.68;;;;;;;13.90;80.91;101441.00;5069518;28;20327;-79
2022/07/01 01:47:04;;;;;;;13.73;9.68;;;;;;;13.90;80.84;101456.69;5067257;28;20020;-79
2022/07/01 01:49:30;;;;;;;14.00;9.55;;;;;;;13.87;81.00;101462.88;5067122;28;20059;-79
2022/07/01 01:51:57;;;;;;;12.57;9.30;;;;;;;13.86;80.95;101473.38;5066370;28;20032;-79
2022/07/01 01:54:23;;;;;;;12.80;8.82;;;;;;;13.85;81.27;101456.81;5063863;28;20028;-79
2022/07/01 01:56:48;;;;;;;12.75;8.77;;;;;;;13.86;81.15;101453.31;5063110;28;20472;-80
2022/07/01 01:59:13;;;;;;;12.73;9.15;;;;;;;13.87;81.14;101443.69;5065647;28;20040;-80
2022/07/01 02:01:39;;;;;;;12.88;9.15;;;;;;;13.87;80.93;101441.94;5060925;28;20024;-80
2022/07/01 02:04:04;;;;;;;12.27;9.07;;;;;;;13.85;80.78;101441.13;5064201;28;20043;-79
2022/07/01 02:06:30;;;;;;;13.65;8.50;;;;;;;13.85;80.96;101448.09;5063989;28;20043;-79
2022/07/01 02:08:55;;;;;;;12.93;8.05;;;;;;;13.85;81.35;101453.34;5072766;28;20514;-79
2022/07/01 02:11:20;;;;;;;14.13;8.82;;;;;;;13.87;81.13;101446.31;5061685;28;20047;-79
2022/07/01 02:13:45;;;;;;;14.32;8.23;;;;;;;13.87;80.85;101443.69;5064988;28;20028;-79
2022/07/01 02:16:11;;;;;;;14.23;8.85;;;;;;;13.85;81.29;101448.97;5066952;28;20020;-79
2022/07/01 02:18:37;;;;;;;13.10;8.20;;;;;;;13.85;81.50;101463.81;5062158;28;20081;-79
2022/07/01 02:21:02;;;;;;;14.93;8.45;;;;;;;13.87;81.71;101467.22;5064410;28;20035;-79
2022/07/01 02:23:29;;;;;;;13.10;8.52;;;;;;;13.87;81.20;101467.22;5063743;28;20119;-80
2022/07/01 02:25:54;;;;;;;12.75;8.23;;;;;;;13.85;81.18;101469.03;5059060;28;20028;-79
2022/07/01 02:28:20;;;;;;;12.65;8.48;;;;;;;13.84;81.19;101489.13;5060895;28;20051;-80
2022/07/01 02:30:45;;;;;;;12.43;8.10;;;;;;;13.83;80.82;101476.09;5067679;28;20073;-80
2022/07/01 02:33:10;;;;;;;12.80;8.82;;;;;;;13.81;81.11;101474.38;5061841;28;20134;-79
2022/07/01 02:35:38;;;;;;;13.02;8.52;;;;;;;13.80;81.29;101477.91;5064621;28;20051;-80
2022/07/01 02:38:04;;;;;;;13.38;9.40;;;;;;;13.81;80.87;101474.38;5060173;28;20040;-81
2022/07/01 02:40:30;;;;;;;15.05;10.00;;;;;;;13.80;81.20;101462.19;5066321;28;20032;-79
2022/07/01 02:42:56;;;;;;;16.70;9.85;;;;;;;13.80;81.20;101456.97;5063086;28;20056;-79
2022/07/01 02:45:22;;;;;;;17.50;10.10;;;;;;;13.80;81.09;101446.50;5067132;28;20056;-79
2022/07/01 02:47:47;;;;;;;15.48;10.18;;;;;;;13.81;81.29;101448.22;5062326;28;21618;-79
2022/07/01 02:50:14;;;;;;;13.55;9.95;;;;;;;13.81;81.11;101450.84;5061865;28;20468;-78
2022/07/01 02:52:41;;;;;;;16.23;9.52;;;;;;;13.80;81.34;101456.97;5066589;28;20230;-78
2022/07/01 02:55:08;;;;;;;15.43;10.10;;;;;;;13.81;81.58;101461.31;5064411;28;20099;-78
2022/07/01 02:57:34;;;;;;;15.00;10.15;;;;;;;13.81;81.66;101455.19;5059691;28;20051;-78
2022/07/01 03:00:00;;;;;;;14.75;9.50;;;;;;;13.80;81.51;101462.19;5062072;28;20028;-78
2022/07/01 03:02:25;;;;;;;16.40;10.50;;;;;;;13.80;81.12;101477.03;5069075;28;20151;-78
2022/07/01 03:04:52;;;;;;;14.07;9.60;;;;;;;13.78;81.16;101495.38;5057015;28;20515;-78
2022/07/01 03:07:19;;;;;;;16.80;10.23;;;;;;;13.76;81.11;101499.78;5062998;28;20024;-78
2022/07/01 03:09:44;;;;;;;14.88;9.52;;;;;;;13.74;81.21;101498.97;5059753;28;20040;-78
2022/07/01 03:12:29;;;;;;;14.50;9.95;;;;;;;13.73;81.16;101486.81;5064630;28;20379;-78
2022/07/01 03:14:59;;;;;;;14.45;9.85;;;;;;;13.72;81.00;101490.31;5064373;28;20144;-78
2022/07/01 03:17:26;;;;;;;16.13;10.48;;;;;;;13.69;81.01;101498.25;5066095;28;20036;-78
2022/07/01 03:19:52;;;;;;;17.17;10.63;;;;;;;13.66;81.29;101506.19;5062471;28;20063;-78
2022/07/01 03:22:19;;;;;;;18.90;10.05;;;;;;;13.63;81.66;101506.28;5063222;28;20392;-78
2022/07/01 03:24:44;;;;;;;18.35;10.65;;;;;;;13.61;81.80;101487.16;5059662;28;20136;-78
2022/07/01 03:27:09;;;;;;;17.10;10.80;;;;;;;13.61;81.64;101484.53;5062284;28;20480;-78
2022/07/01 03:29:35;;;;;;;16.33;10.00;;;;;;;13.61;81.61;101487.16;5058605;28;20121;-78
2022/07/01 03:32:00;;;;;;;12.55;9.25;;;;;;;13.60;81.90;101496.75;5059725;28;20028;-78
2022/07/01 03:34:26;;;;;;;15.52;9.57;;;;;;;13.59;81.67;101499.41;5060158;28;20130;-79
2022/07/01 03:36:51;;;;;;;15.38;9.70;;;;;;;13.59;81.66;101508.09;5059760;28;20037;-78
2022/07/01 03:39:16;;;;;;;12.77;9.48;;;;;;;13.58;81.81;101505.53;5061915;28;20024;-79
2022/07/01 03:41:41;;;;;;;14.52;8.90;;;;;;;13.58;82.18;101500.31;5061476;28;20020;-79
2022/07/01 03:44:07;;;;;;;15.85;9.73;;;;;;;13.61;82.01;101505.47;5062691;28;20475;-79
2022/07/01 03:46:34;;;;;;;14.15;9.68;;;;;;;13.62;82.20;101509.78;5063517;28;20037;-79
2022/07/01 03:48:59;;;;;;;14.40;9.57;;;;;;;13.62;82.13;101520.25;5056773;28;20487;-79
2022/07/01 03:51:24;;;;;;;15.32;10.43;;;;;;;13.64;82.51;101529.75;5053908;28;20033;-79
2022/07/01 03:56:34;;;;;;;14.52;10.05;;;;;;;13.65;82.36;101531.47;5066588;28;20127;-79
2022/07/01 03:58:59;;;;;;;16.60;9.68;;;;;;;13.66;82.52;101537.56;5060284;28;20115;-79
2022/07/01 04:01:25;;;;;;;15.05;9.50;;;;;;;13.67;82.64;101534.03;5066487;28;20112;-79
2022/07/01 04:03:50;;;;;;;14.30;9.82;;;;;;;13.68;82.75;101533.13;5057310;28;20031;-79
2022/07/01 04:06:16;;;;;;;15.43;9.90;;;;;;;13.70;82.87;101544.41;5054933;28;20163;-78
2022/07/01 04:08:41;;;;;;;15.65;9.57;;;;;;;13.72;82.63;101541.78;5056853;28;20028;-79
2022/07/01 04:11:08;;;;;;;15.45;9.30;;;;;;;13.72;82.60;101542.63;5060813;28;20478;-78
2022/07/01 04:13:36;;;;;;;16.30;9.98;;;;;;;13.72;82.50;101537.38;5061385;28;20039;-79
2022/07/01 04:16:02;;;;;;;15.50;10.05;;;;;;;13.73;82.75;101544.34;5059718;28;20055;-79
2022/07/01 04:18:28;;;;;;;15.85;9.73;;;;;;;13.72;83.05;101547.00;5060015;28;20617;-78
2022/07/01 04:23:37;;;;;;;16.65;10.57;;;;;;;13.74;82.76;101545.22;5066050;28;20467;-78
2022/07/01 04:26:03;;;;;;;15.73;9.95;;;;;;;13.73;82.86;101533.88;5061806;28;20024;-79
2022/07/01 04:28:28;;;;;;;15.13;10.10;;;;;;;13.74;82.73;101525.13;5059585;28;20120;-79
2022/07/01 04:30:54;;;;;;;17.05;10.20;;;;;;;13.74;82.77;101524.28;5068444;28;20078;-79
2022/07/01 04:33:19;;;;;;;16.27;10.52;;;;;;;13.76;82.49;101531.19;5057904;28;20083;-79
2022/07/01 04:35:45;;;;;;;18.27;10.13;;;;;;;13.75;82.50;101536.47;5060554;28;20025;-78
2022/07/01 04:38:10;;;;;;;17.90;10.68;;;;;;;13.75;82.36;101533.84;5056217;28;20036;-79
2022/07/01 04:40:35;;;;;;;20.00;10.52;;;;;;;13.75;82.55;101546.94;5063519;28;20025;-79
2022/07/01 04:43:00;;;;;;;16.02;10.57;;;;;;;13.74;82.58;101538.19;5055851;28;20025;-79
2022/07/01 04:45:26;;;;;;;16.05;10.43;;;;;;;13.76;82.67;101549.47;5056496;28;20462;-79
2022/07/01 04:47:51;;;;;;;15.23;10.77;;;;;;;13.76;82.30;101546.88;5055275;28;20029;-79
2022/07/01 04:50:16;;;;;;;17.73;10.75;;;;;;;13.78;82.64;101555.53;5057789;28;20017;-79
2022/07/01 04:52:41;;;;;;;16.08;11.38;;;;;;;13.79;82.12;101556.38;5056048;28;20032;-79
2022/07/01 04:55:07;;;;;;;19.52;11.48;;;;;;;13.79;81.66;101559.00;5071472;28;20479;-79
2022/07/01 04:57:33;;;;;;;17.60;11.98;;;;;;;13.80;81.45;101551.13;5064259;28;20040;-79
2022/07/01 04:59:59;;;;;;;24.95;12.27;;;;;;;13.82;81.33;101551.06;5057076;28;20024;-79
2022/07/01 05:02:24;;;;;;;21.83;12.77;;;;;;;13.83;81.17;101551.94;5059902;28;20063;-79
2022/07/01 05:04:49;;;;;;;19.10;11.95;;;;;;;13.85;81.54;101542.25;5053173;28;20024;-79
2022/07/01 05:07:31;;;;;;;17.70;12.10;;;;;;;13.85;81.45;101552.72;5061116;28;20479;-78
2022/07/01 05:09:58;;;;;;;18.33;12.55;;;;;;;13.86;80.79;101552.69;5055830;28;20056;-79
2022/07/01 05:12:24;;;;;;;20.45;12.90;;;;;;;13.86;81.19;101554.44;5060577;28;20464;-79
2022/07/01 05:14:49;;;;;;;19.70;12.98;;;;;;;13.86;80.89;101555.31;5060865;28;20037;-79
2022/07/01 05:17:15;;;;;;;19.67;13.25;;;;;;;13.89;81.16;101554.38;5062367;28;20024;-79
2022/07/01 05:22:24;;;;;;;18.90;13.60;;;;;;;13.91;81.09;101548.22;5058990;28;20104;-79
2022/07/01 05:24:49;;;;;;;18.23;13.60;;;;;;;13.91;80.83;101545.59;5063706;28;20108;-79
2022/07/01 05:27:14;;;;;;;17.50;12.65;;;;;;;13.91;81.06;101542.97;5057038;28;20028;-79
2022/07/01 05:29:39;;;;;;;17.77;13.27;;;;;;;13.92;81.59;101542.03;5062257;28;20032;-79
2022/07/01 05:32:05;;;;;;;19.10;13.07;;;;;;;13.96;81.42;101540.22;5059434;28;20417;-79
2022/07/01 05:34:30;;;;;;;18.02;12.38;;;;;;;13.97;81.20;101539.31;5063028;28;20066;-79
2022/07/01 05:36:56;;;;;;;18.00;11.98;;;;;;;14.01;81.22;101540.94;5060562;28;20436;-79
2022/07/01 05:39:21;;;;;;;15.70;10.80;;;;;;;14.01;81.12;101538.31;5059446;28;20040;-79
2022/07/01 05:41:47;;;;;;;14.65;10.15;;;;;;;14.03;80.50;101541.75;5058404;28;20106;-78
2022/07/01 05:44:12;;;;;;;18.25;9.48;;;;;;;14.04;80.39;101540.84;5065076;28;20305;-79
2022/07/01 05:46:38;;;;;;;12.95;8.85;;;;;;;14.07;80.38;101547.75;5060574;28;20101;-79
2022/07/01 05:49:04;;;;;;;13.98;9.20;;;;;;;14.05;80.37;101545.19;5057643;28;20479;-79
2022/07/01 05:51:29;;;;;;;13.45;8.20;;;;;;;14.05;80.41;101539.94;5057710;28;20025;-80
2022/07/01 05:53:56;;;;;;;11.55;7.70;;;;;;;14.06;80.13;101546.88;5064641;28;20025;-79
2022/07/01 05:56:21;;;;;;;13.82;8.23;;;;;;;14.05;80.71;101558.25;5063333;28;20386;-79
2022/07/01 05:58:47;;;;;;;10.35;7.03;;;;;;;14.04;80.06;101558.31;5060493;28;20033;-79
2022/07/01 06:01:12;;;;;;;11.55;7.13;;;;;;;14.00;79.76;101559.28;5076603;28;20455;-79
2022/07/01 06:03:37;;;;;;;12.25;6.93;;;;;;;13.98;79.69;101555.88;5080221;28;20035;-79
2022/07/01 06:06:03;;;;;;;13.95;7.03;;;;;;;14.00;79.82;101562.78;5076755;28;20024;-79
2022/07/01 06:08:28;;;;;;;10.65;6.45;;;;;;;14.05;79.60;101555.63;5075749;28;20044;-79
2022/07/01 06:10:53;;;;;;;12.05;7.68;;;;;;;14.07;79.90;101553.84;5075365;28;20040;-79
2022/07/01 06:13:19;;;;;;;13.32;6.95;;;;;;;14.07;78.76;101548.59;5070674;28;20013;-78
2022/07/01 06:15:44;;;;;;;12.85;7.78;;;;;;;14.06;78.94;101562.59;5067723;28;20497;-79
2022/07/01 06:18:09;;;;;;;13.02;7.32;;;;;;;14.03;79.06;101552.22;5068400;28;20033;-79
2022/07/01 06:20:35;;;;;;;11.70;7.35;;;;;;;14.03;79.45;101557.44;5077544;28;20045;-79
2022/07/01 06:23:00;;;;;;;10.75;7.63;;;;;;;14.06;80.29;101551.28;5071768;28;20021;-79
2022/07/01 06:25:25;;;;;;;12.88;7.88;;;;;;;14.08;79.30;101555.56;5074374;28;20553;-79
2022/07/01 06:27:50;;;;;;;13.30;7.47;;;;;;;14.10;79.92;101545.03;5072451;28;20032;-79
2022/07/01 06:30:16;;;;;;;12.73;8.02;;;;;;;14.13;79.24;101547.56;5071858;28;20027;-79
2022/07/01 06:32:41;;;;;;;12.70;8.18;;;;;;;14.17;79.71;101543.13;5077032;28;20020;-79
2022/07/01 06:35:07;;;;;;;11.70;7.93;;;;;;;14.22;78.69;101541.19;5066328;28;20403;-79
2022/07/01 06:37:33;;;;;;;15.35;8.32;;;;;;;14.23;78.98;101548.16;5069067;28;20061;-79
2022/07/01 06:40:00;;;;;;;13.00;7.65;;;;;;;14.26;78.33;101545.44;5067654;28;20165;-79
2022/07/01 06:42:25;;;;;;;14.15;7.90;;;;;;;14.32;78.02;101552.25;5071481;28;20392;-79
2022/07/01 06:44:50;;;;;;;12.80;8.32;;;;;;;14.28;77.19;101551.50;5064660;28;20111;-78
2022/07/01 06:47:16;;;;;;;13.20;7.97;;;;;;;14.23;76.72;101548.16;5071561;28;20055;-79
2022/07/01 06:49:41;;;;;;;15.82;7.97;;;;;;;14.24;77.50;101560.34;5068631;28;20180;-79
2022/07/01 06:52:06;;;;;;;14.38;8.20;;;;;;;14.30;78.70;101562.78;5066110;28;20040;-78
2022/07/01 06:54:32;;;;;;;11.48;7.70;;;;;;;14.35;78.88;101558.25;5070867;28;20023;-79
2022/07/01 06:56:57;;;;;;;12.52;7.18;;;;;;;14.39;77.26;101565.09;5069771;28;20099;-79
2022/07/01 06:59:22;;;;;;;11.07;7.07;;;;;;;14.42;76.90;101565.03;5067893;28;20028;-79
2022/07/01 07:01:49;;;;;;;9.60;6.85;;;;;;;14.45;76.29;101571.06;5067227;28;20024;-78
2022/07/01 07:04:15;;;;;;;10.90;6.97;;;;;;;14.46;75.59;101575.41;5065415;28;20395;-79
2022/07/01 07:06:40;;;;;;;9.50;6.75;;;;;;;14.50;75.88;101569.19;5076420;28;20466;-78
2022/07/01 07:09:05;;;;;;;11.35;6.53;;;;;;;14.49;75.27;101576.16;5069640;28;20035;-78
2022/07/01 07:11:31;;;;;;;10.20;6.70;;;;;;;14.54;75.53;101583.88;5065470;28;20025;-78
2022/07/01 07:13:56;;;;;;;9.48;6.72;;;;;;;14.60;75.17;101583.69;5070672;28;20047;-79
2022/07/01 07:16:21;;;;;;;9.23;6.35;;;;;;;14.64;74.84;101589.69;5068818;28;20024;-79
2022/07/01 07:18:48;;;;;;;9.73;6.15;;;;;;;14.66;74.63;101590.50;5060824;28;20056;-79
2022/07/01 07:21:13;;;;;;;10.27;6.82;;;;;;;14.62;74.07;101581.88;5065328;28;20040;-79
2022/07/01 07:23:38;;;;;;;9.98;6.53;;;;;;;14.60;74.20;101578.47;5064202;28;20051;-79
2022/07/01 07:26:04;;;;;;;10.50;7.13;;;;;;;14.63;74.45;101599.31;5065778;28;20059;-79
2022/07/01 07:28:29;;;;;;;9.23;6.22;;;;;;;14.67;75.63;101608.81;5067334;28;20227;-78
2022/07/01 07:30:54;;;;;;;7.40;5.68;;;;;;;14.73;74.88;101607.78;5063437;28;20052;-79
2022/07/01 07:33:20;;;;;;;8.23;5.60;;;;;;;14.77;72.70;101616.41;5063170;28;20051;-79
2022/07/01 07:35:45;;;;;;;8.68;5.10;;;;;;;14.79;72.75;101614.59;5064525;28;20483;-79
2022/07/01 07:38:11;;;;;;;9.57;4.93;;;;;;;14.79;72.61;101614.59;5065584;28;20658;-79
2022/07/01 07:40:36;;;;;;;9.02;4.97;;;;;;;14.77;73.50;101619.00;5065282;28;20036;-79
2022/07/01 07:43:03;;;;;;;7.53;4.72;;;;;;;14.77;71.42;101616.41;5065379;28;20065;-79
2022/07/01 07:45:29;;;;;;;11.27;4.70;;;;;;;14.81;71.83;101618.88;5065273;28;20032;-79
2022/07/01 07:47:54;;;;;;;7.32;4.18;;;;;;;14.87;71.70;101618.69;5062959;28;20028;-79
2022/07/01 07:50:21;;;;;;;5.88;4.10;;;;;;;14.94;70.99;101619.34;5065104;28;20036;-79
2022/07/01 07:52:46;;;;;;;7.30;4.30;;;;;;;15.01;71.03;101618.25;5064268;28;20021;-79
2022/07/01 07:55:12;;;;;;;8.52;4.20;;;;;;;15.04;70.52;101625.16;5064452;28;20398;-79
2022/07/01 07:57:39;;;;;;;9.02;4.63;;;;;;;15.07;70.92;101626.81;5061845;28;20028;-79
2022/07/01 08:00:07;;;;;;;7.97;4.25;;;;;;;15.09;69.92;101631.13;5066500;28;20111;-79
2022/07/01 08:02:32;;;;;;;9.25;4.35;;;;;;;15.13;70.42;101629.25;5060288;28;20078;-79
2022/07/01 08:04:57;;;;;;;10.10;3.90;;;;;;;15.18;69.73;101629.97;5065997;28;20074;-79
2022/07/01 08:07:23;;;;;;;6.25;3.08;;;;;;;15.19;68.12;101629.06;5063714;28;20058;-79
2022/07/01 08:09:49;;;;;;;6.82;3.63;;;;;;;15.14;68.69;101618.69;5065957;28;20754;-80
2022/07/01 08:12:15;;;;;;;5.32;3.17;;;;;;;15.14;67.79;101625.72;5064684;28;20121;-78
2022/07/01 08:14:40;;;;;;;6.28;2.60;;;;;;;15.20;67.63;101633.34;5063178;28;20028;-79
2022/07/01 08:17:05;;;;;;;6.85;2.90;;;;;;;15.24;67.68;101632.34;5065664;28;20032;-79
2022/07/01 08:19:31;;;;;;;6.47;2.17;;;;;;;15.32;67.35;101634.72;5064322;28;20491;-79
2022/07/01 08:21:56;;;;;;;6.75;2.60;;;;;;;15.37;66.99;101627.56;5063865;28;20043;-79
2022/07/01 08:24:22;;;;;;;5.03;2.03;;;;;;;15.45;68.50;101629.94;5063175;28;20058;-79
2022/07/01 08:26:48;;;;;;;3.28;1.80;;;;;;;15.49;67.05;101639.44;5059992;28;20032;-79
2022/07/01 08:29:13;;;;;;;6.28;2.10;;;;;;;15.52;65.85;101655.06;5058435;28;20059;-79
2022/07/01 08:31:38;;;;;;;5.05;1.70;;;;;;;15.55;64.49;101644.44;5057442;28;20058;-79
2022/07/01 08:34:04;;;;;;;5.35;1.70;;;;;;;15.61;66.46;101652.13;5062116;28;20118;-79
2022/07/01 08:36:29;;;;;;;3.15;1.35;;;;;;;15.66;64.16;101659.81;5055355;28;20226;-79
2022/07/01 08:38:54;;;;;;;6.63;1.83;;;;;;;15.70;64.56;101657.97;5057270;28;20915;-79
2022/07/01 08:41:20;;;;;;;4.47;1.60;;;;;;;15.73;63.41;101665.72;5060784;28;20036;-79
2022/07/01 08:43:45;;;;;;;3.08;1.20;;;;;;;15.79;64.50;101660.25;5061124;28;20033;-80
2022/07/01 08:46:11;;;;;;;3.55;1.00;;;;;;;15.86;63.90;101667.06;5062046;28;20086;-79
2022/07/01 08:48:41;;;;;;;3.10;1.00;;;;;;;15.93;61.46;101672.94;5061966;28;20020;-80
2022/07/01 08:51:06;;;;;;;3.95;1.73;;;;;;;15.97;61.97;101660.56;5062460;28;20496;-79
2022/07/01 08:53:32;;;;;;;2.03;0.85;;;;;;;15.99;61.49;101664.00;5059780;28;20039;-79
2022/07/01 08:58:41;;;;;;;2.88;0.88;;;;;;;16.05;59.51;101671.66;5063061;28;20082;-78
2022/07/01 09:01:21;;;;;;;6.65;1.05;;;;;;;16.10;60.75;101674.13;5061027;28;20477;-80
2022/07/01 09:03:48;;;;;;;2.25;0.80;;;;;;;16.15;59.78;101677.41;5058140;28;20032;-79
2022/07/01 09:06:16;;;;;;;2.72;0.77;;;;;;;16.24;61.49;101674.47;5057606;28;20686;-80
2022/07/01 09:08:42;;;;;;;2.55;0.80;;;;;;;16.31;60.25;101670.69;5060700;28;20037;-80
2022/07/01 09:11:12;;;;;;;4.18;0.60;;;;;;;16.33;58.79;101671.50;5065311;28;20028;-80
2022/07/01 09:13:38;;;;;;;1.77;0.70;;;;;;;16.35;57.90;101668.84;5063727;28;20115;-81
2022/07/01 09:16:14;;;;;;;2.13;0.80;;;;;;;16.39;60.20;101670.44;5063278;28;20157;-80
2022/07/01 09:18:40;;;;;;;5.85;0.90;;;;;;;16.44;58.85;101668.47;5063284;28;20036;-80
2022/07/01 09:21:13;;;;;;;3.78;0.82;;;;;;;16.49;59.04;101665.69;5064057;28;20040;-80
2022/07/01 09:23:39;;;;;;;2.60;0.88;;;;;;;16.54;58.35;101669.00;5062055;28;20037;-80
2022/07/01 09:26:04;;;;;;;1.42;0.70;;;;;;;16.60;57.96;101673.16;5057966;28;20036;-81
2022/07/01 09:28:29;;;;;;;5.20;0.90;;;;;;;16.62;58.20;101671.31;5062868;28;20431;-80
2022/07/01 09:30:57;;;;;;;2.63;0.98;;;;;;;16.65;58.89;101671.22;5055901;28;20120;-80
2022/07/01 09:33:29;;;;;;;4.15;1.23;;;;;;;16.68;58.60;101668.47;5048378;28;20490;-81
2022/07/01 09:35:56;;;;;;;2.70;1.00;;;;;;;16.69;57.99;101673.66;5055445;28;20048;-79
2022/07/01 09:38:26;;;;;;;4.85;1.00;;;;;;;16.65;57.36;101682.56;5055398;28;20044;-79
2022/07/01 09:40:52;;;;;;;5.88;1.00;;;;;;;16.63;56.49;101671.28;5062878;28;20492;-79
2022/07/01 09:43:29;;;;;;;3.42;0.80;;;;;;;16.66;57.23;101678.19;5059148;28;20032;-80
2022/07/01 09:46:06;;;;;;;1.30;0.70;;;;;;;16.71;57.78;101676.25;5057754;28;20024;-79
2022/07/01 09:48:31;;;;;;;3.15;0.88;;;;;;;16.75;56.93;101677.81;5056926;28;20077;-80
2022/07/01 09:50:57;;;;;;;3.22;0.82;;;;;;;16.78;56.32;101685.59;5060930;28;20313;-81
2022/07/01 09:53:22;;;;;;;3.85;1.00;;;;;;;16.87;57.76;101683.53;5061521;28;20087;-80
2022/07/01 09:55:48;;;;;;;3.30;1.13;;;;;;;16.94;55.71;101691.13;5058294;28;20604;-81
2022/07/01 09:58:14;;;;;;;7.30;1.30;;;;;;;17.03;57.55;101692.56;5060409;28;20024;-80
2022/07/01 10:00:40;;;;;;;4.25;1.20;;;;;;;17.09;56.65;101701.97;5062322;28;20032;-80
2022/07/01 10:03:06;;;;;;;3.53;1.08;;;;;;;17.17;60.17;101701.69;5045376;28;20123;-80
2022/07/01 10:05:37;;;;;;;2.92;1.00;;;;;;;17.23;59.41;101701.44;5059137;28;20468;-81
2022/07/01 10:08:37;;;;;;;1.25;0.80;;;;;;;17.29;58.78;101693.28;5061245;28;20047;-80
2022/07/01 10:11:21;;;;;;;3.63;1.10;;;;;;;17.32;59.40;101706.31;5058356;28;20056;-80
2022/07/01 10:13:47;;;;;;;2.35;0.90;;;;;;;17.31;57.18;101707.25;5061395;28;20039;-80
2022/07/01 10:16:14;;;;;;;3.00;1.00;;;;;;;17.34;57.04;101712.38;5056814;28;20352;-80
2022/07/01 10:18:39;;;;;;;3.58;0.95;;;;;;;17.37;56.47;101714.88;5055520;28;20113;-80
2022/07/01 10:21:05;;;;;;;3.97;0.90;;;;;;;17.42;55.18;101714.69;5059859;28;20498;-80
2022/07/01 10:23:42;;;;;;;3.40;1.00;;;;;;;17.49;56.82;101717.94;5059647;28;20476;-81
2022/07/01 10:26:08;;;;;;;2.47;0.80;;;;;;;17.54;54.03;101726.50;5060266;28;20759;-80
2022/07/01 10:28:46;;;;;;;3.28;0.90;;;;;;;17.62;56.71;101727.03;5056689;28;20036;-80
2022/07/01 10:31:38;;;;;;;2.95;0.90;;;;;;;17.62;57.23;101727.03;5059995;28;20032;-80
2022/07/01 10:34:04;;;;;;;2.92;0.93;;;;;;;17.69;56.42;101733.75;5059367;28;21575;-80
2022/07/01 10:36:32;;;;;;;2.05;0.85;;;;;;;17.75;53.65;101728.25;5062160;28;20087;-80
2022/07/01 10:41:30;;;;;;;2.15;0.77;;;;;;;17.77;52.08;101727.28;5058025;28;20079;-81
2022/07/01 10:43:55;;;;;;;2.00;0.80;;;;;;;17.75;52.47;101717.72;5060621;28;20849;-80
2022/07/01 10:46:44;;;;;;;3.72;0.90;;;;;;;17.78;54.86;101726.38;5059360;28;20028;-80
2022/07/01 10:49:40;;;;;;;5.25;0.90;;;;;;;17.75;53.99;101727.38;5062724;28;20114;-80
2022/07/01 10:52:07;;;;;;;10.45;1.02;;;;;;;17.77;53.10;101724.66;5056999;28;20048;-80
2022/07/01 10:54:39;;;;;;;4.95;0.80;;;;;;;17.82;52.96;101728.84;5057803;28;20028;-81
2022/07/01 10:57:16;;;;;;;1.42;0.68;;;;;;;17.91;54.44;101722.34;5058465;28;20043;-80
2022/07/01 10:59:48;;;;;;;4.43;0.77;;;;;;;17.99;53.77;101729.94;5059562;28;20036;-80
2022/07/01 11:02:25;;;;;;;2.75;0.90;;;;;;;18.04;53.22;101723.53;5061771;28;20413;-80
2022/07/01 11:04:53;;;;;;;6.57;0.65;;;;;;;18.03;51.40;101716.56;5062834;28;20105;-80
2022/07/01 11:07:18;;;;;;;4.05;0.80;;;;;;;18.03;50.66;101715.69;5061743;28;20376;-80
2022/07/01 11:09:44;;;;;;;2.35;0.70;;;;;;;18.03;52.99;101715.69;5058474;28;20036;-80
2022/07/01 11:12:09;;;;;;;3.42;0.77;;;;;;;18.05;53.47;101709.47;5060432;28;20016;-81
2022/07/01 11:14:40;;;;;;;3.80;0.80;;;;;;;18.12;50.89;101715.31;5062015;28;20037;-81
2022/07/01 11:17:07;;;;;;;3.10;0.60;;;;;;;18.23;52.15;101717.47;5062271;28;20028;-80
2022/07/01 11:19:32;;;;;;;2.85;0.70;;;;;;;18.27;52.30;101718.19;5060642;28;20079;-80
2022/07/01 11:21:57;;;;;;;2.17;0.77;;;;;;;18.33;52.47;101712.66;5060048;28;20028;-80
2022/07/01 11:24:24;;;;;;;2.88;0.70;;;;;;;18.40;54.58;101714.06;5062395;28;20021;-80
2022/07/01 11:26:50;;;;;;;1.50;0.60;;;;;;;18.41;50.99;101704.41;5060658;28;20430;-81
2022/07/01 11:29:26;;;;;;;1.65;0.60;;;;;;;18.42;52.91;101714.03;5060247;28;20036;-80